Time;durP1;ratioP1;P1;durP2;ratioP2;P2;SDS_P1;SDS_P2;PMS_P1;PMS_P2;Temp;Humidity;BMP_temperature;BMP_pressure;BME280_temperature;BME280_humidity;BME280_pressure;Samples;Min_cycle;Max_cycle;Signal;HPM_P1;HPM_P2
2022/11/04 00:00:26;;;;;;;2.97;2.28;;;;;;;9.83;100.00;99832.16;1019857;29;20335;-89
2022/11/04 00:01:04;;;;;;;2.95;2.67;;;;;;;9.72;100.00;99827.69;1015638;29;20447;-89
2022/11/04 00:01:44;;;;;;;1.98;1.80;;;;;;;9.80;100.00;99826.50;1014525;29;20300;-90
2022/11/04 00:02:15;;;;;;;3.88;1.95;;;;;;;9.78;100.00;99831.25;1019735;29;20307;-89
2022/11/04 00:02:47;;;;;;;4.40;1.88;;;;;;;9.81;100.00;99834.25;1027330;28;20341;-88
2022/11/04 00:03:19;;;;;;;4.88;2.05;;;;;;;9.84;100.00;99835.63;1027291;28;20692;-89
2022/11/04 00:03:51;;;;;;;2.63;2.42;;;;;;;9.79;100.00;99843.50;1031795;28;20297;-89
2022/11/04 00:04:25;;;;;;;3.58;2.20;;;;;;;9.83;100.00;99837.47;1019660;28;20394;-89
2022/11/04 00:04:58;;;;;;;2.65;2.40;;;;;;;9.85;100.00;99834.56;1022682;28;20313;-89
2022/11/04 00:05:29;;;;;;;4.70;2.75;;;;;;;9.83;100.00;99842.00;1023542;28;20303;-89
2022/11/04 00:06:01;;;;;;;2.63;2.42;;;;;;;9.85;100.00;99842.56;1019698;29;20318;-89
2022/11/04 00:06:33;;;;;;;5.63;2.75;;;;;;;9.88;100.00;99844.78;1022511;29;20362;-89
2022/11/04 00:08:22;;;;;;;3.95;2.90;;;;;;;9.91;100.00;99844.28;1030183;28;20308;-88
2022/11/04 00:08:50;;;;;;;2.28;2.08;;;;;;;9.92;100.00;99845.91;1016964;29;20301;-89
2022/11/04 00:09:25;;;;;;;3.00;2.08;;;;;;;9.93;100.00;99852.84;1014926;29;20325;-89
2022/11/04 00:09:56;;;;;;;3.50;2.88;;;;;;;9.93;100.00;99852.84;1023253;29;20330;-89
2022/11/04 00:12:23;;;;;;;2.33;2.13;;;;;;;9.91;100.00;99849.63;1028931;28;20321;-88
2022/11/04 00:12:55;;;;;;;5.82;3.15;;;;;;;9.91;100.00;99850.44;1027731;28;20359;-88
2022/11/04 00:13:29;;;;;;;6.22;3.90;;;;;;;9.95;100.00;99856.06;1022913;29;20310;-89
2022/11/04 00:14:01;;;;;;;6.63;3.20;;;;;;;9.96;100.00;99852.38;1022013;29;20385;-90
2022/11/04 00:14:34;;;;;;;4.38;3.17;;;;;;;9.89;100.00;99851.72;1022155;29;20347;-89
2022/11/04 00:17:40;;;;;;;4.40;3.75;;;;;;;9.90;100.00;99850.66;1023379;28;20302;-87
2022/11/04 00:18:12;;;;;;;9.15;3.78;;;;;;;9.91;100.00;99855.75;1018545;29;20322;-89
2022/11/04 00:18:43;;;;;;;6.90;4.03;;;;;;;9.94;100.00;99858.97;1020326;29;20330;-89
2022/11/04 00:19:15;;;;;;;4.30;3.22;;;;;;;10.01;100.00;99864.97;1019457;29;20342;-90
2022/11/04 00:29:04;;;;;;;7.47;3.92;;;;;;;9.81;100.00;99884.78;1023471;28;20054;-88
2022/11/04 00:29:35;;;;;;;4.40;4.00;;;;;;;9.80;100.00;99885.00;1022182;29;20303;-89
2022/11/04 00:30:09;;;;;;;4.80;4.28;;;;;;;9.88;100.00;99887.31;1027377;28;20305;-88
2022/11/04 00:30:40;;;;;;;6.45;5.00;;;;;;;9.88;100.00;99892.66;1013160;29;20672;-89
2022/11/04 00:33:42;;;;;;;5.45;3.78;;;;;;;9.97;100.00;99903.72;1024796;28;20764;-89
2022/11/04 00:34:13;;;;;;;7.43;4.30;;;;;;;9.93;100.00;99906.03;1033721;28;20788;-89
2022/11/04 00:34:45;;;;;;;6.03;4.10;;;;;;;9.93;100.00;99897.25;1020192;28;20338;-88
2022/11/04 00:35:17;;;;;;;5.00;3.60;;;;;;;9.87;100.00;99901.69;1015019;29;20642;-88
2022/11/04 00:35:49;;;;;;;5.53;4.97;;;;;;;9.87;100.00;99893.69;1018295;29;20315;-88
2022/11/04 00:36:23;;;;;;;6.10;3.88;;;;;;;9.86;100.00;99892.03;1021639;29;20303;-89
2022/11/04 00:36:54;;;;;;;4.78;4.30;;;;;;;9.89;100.00;99892.41;1031617;28;20325;-88
2022/11/04 00:37:26;;;;;;;5.13;4.20;;;;;;;9.87;100.00;99896.34;1028487;28;20814;-89
2022/11/04 00:37:57;;;;;;;4.68;4.05;;;;;;;9.91;100.00;99895.66;1021795;29;20338;-89
2022/11/04 00:38:29;;;;;;;4.15;3.85;;;;;;;9.92;100.00;99904.44;1020769;29;20674;-88
2022/11/04 00:39:00;;;;;;;5.65;3.80;;;;;;;9.91;100.00;99900.16;1023132;29;20381;-89
2022/11/04 00:39:32;;;;;;;6.43;5.18;;;;;;;9.88;100.00;99911.28;1015986;29;20675;-89
2022/11/04 00:40:05;;;;;;;5.22;4.32;;;;;;;9.93;100.00;99895.41;1016721;29;20356;-89
2022/11/04 00:40:36;;;;;;;6.15;4.70;;;;;;;9.93;100.00;99894.59;1018807;29;20747;-89
2022/11/04 00:41:24;;;;;;;6.00;4.38;;;;;;;9.88;100.00;99897.97;1022394;29;20428;-89
2022/11/04 00:41:56;;;;;;;3.95;3.65;;;;;;;9.90;100.00;99906.53;1023510;29;20338;-89
2022/11/04 00:42:28;;;;;;;6.18;4.00;;;;;;;9.90;100.00;99906.53;1018779;29;20314;-89
2022/11/04 00:43:00;;;;;;;5.00;4.28;;;;;;;9.92;100.00;99909.75;1032521;28;20321;-89
2022/11/04 00:43:32;;;;;;;4.70;3.97;;;;;;;9.91;100.00;99908.13;1035330;28;20319;-89
2022/11/04 00:44:04;;;;;;;6.68;3.30;;;;;;;9.95;100.00;99903.97;1020557;29;20925;-90
2022/11/04 00:44:35;;;;;;;4.30;3.90;;;;;;;9.92;100.00;99912.41;1026284;28;20396;-90
2022/11/04 00:45:07;;;;;;;3.95;3.50;;;;;;;9.90;100.00;99909.19;1026602;28;20321;-88
2022/11/04 00:45:40;;;;;;;6.22;3.38;;;;;;;9.85;100.00;99909.06;1018970;29;20710;-89
2022/11/04 00:46:11;;;;;;;6.43;4.20;;;;;;;9.86;100.00;99910.66;1028252;28;20294;-89
2022/11/04 00:46:43;;;;;;;6.00;4.13;;;;;;;9.87;100.00;99917.63;1027435;28;20341;-89
2022/11/04 00:47:15;;;;;;;7.30;4.22;;;;;;;9.86;100.00;99910.66;1021720;29;20295;-89
2022/11/04 00:47:46;;;;;;;5.22;3.83;;;;;;;9.87;100.00;99912.31;1020200;29;20701;-88
2022/11/04 00:48:18;;;;;;;4.47;4.03;;;;;;;9.86;100.00;99905.34;1020563;29;20343;-88
2022/11/04 00:48:49;;;;;;;4.47;3.80;;;;;;;9.86;100.00;99916.81;1031786;28;20321;-89
2022/11/04 00:49:21;;;;;;;6.60;4.57;;;;;;;9.81;100.00;99910.56;1027864;28;20810;-89
2022/11/04 00:49:53;;;;;;;5.22;4.13;;;;;;;9.80;100.00;99907.09;1022405;29;20355;-89
2022/11/04 00:50:24;;;;;;;5.25;4.75;;;;;;;9.82;100.00;99914.84;1021399;28;20299;-89
2022/11/04 00:50:56;;;;;;;5.03;4.28;;;;;;;9.82;100.00;99910.31;1024035;29;20291;-89
2022/11/04 00:51:28;;;;;;;5.00;4.50;;;;;;;9.82;100.00;99913.00;1020335;29;20311;-89
2022/11/04 00:51:59;;;;;;;5.95;5.07;;;;;;;9.83;100.00;99911.94;1019979;29;20295;-89
2022/11/04 00:52:31;;;;;;;8.30;4.47;;;;;;;9.82;100.00;99917.50;1017408;29;20394;-89
2022/11/04 00:53:03;;;;;;;6.20;5.40;;;;;;;9.80;100.00;99915.06;1026416;28;20449;-88
2022/11/04 00:53:34;;;;;;;6.28;4.43;;;;;;;9.82;100.00;99914.84;1021855;29;20648;-89
2022/11/04 00:54:06;;;;;;;8.50;4.65;;;;;;;9.84;100.00;99912.75;1017918;29;20379;-89
2022/11/04 00:54:38;;;;;;;6.85;4.95;;;;;;;9.83;100.00;99919.13;1014242;29;20320;-90
2022/11/04 00:55:10;;;;;;;4.95;4.45;;;;;;;9.83;100.00;99913.78;1018088;29;20299;-88
2022/11/04 00:55:42;;;;;;;5.78;5.22;;;;;;;9.86;100.00;99915.97;1023109;29;20401;-89
2022/11/04 00:56:14;;;;;;;5.97;4.78;;;;;;;9.85;100.00;99912.53;1020744;28;20307;-89
2022/11/04 00:56:47;;;;;;;6.45;5.13;;;;;;;9.85;100.00;99923.16;1016411;29;20387;-90
2022/11/04 00:57:18;;;;;;;6.38;5.35;;;;;;;9.85;100.00;99917.84;1021573;29;20314;-89
2022/11/04 00:57:50;;;;;;;6.82;5.35;;;;;;;9.85;100.00;99919.69;1024306;29;20306;-89
2022/11/04 00:58:22;;;;;;;4.93;4.30;;;;;;;9.83;100.00;99924.44;1024322;29;20798;-89
2022/11/04 00:58:53;;;;;;;7.13;5.28;;;;;;;9.80;100.00;99924.91;1020528;29;20343;-89
2022/11/04 00:59:25;;;;;;;6.30;5.53;;;;;;;9.79;100.00;99926.75;1024197;29;20322;-89
2022/11/04 00:59:56;;;;;;;6.50;5.70;;;;;;;9.82;100.00;99923.63;1020476;29;20351;-88
2022/11/04 01:00:28;;;;;;;7.93;4.82;;;;;;;9.87;100.00;99923.75;1020160;29;20300;-89
2022/11/04 01:00:59;;;;;;;7.10;5.40;;;;;;;9.88;100.00;99927.22;1028221;28;20302;-89
2022/11/04 01:01:31;;;;;;;6.22;5.60;;;;;;;9.89;100.00;99934.16;1026544;28;20310;-89
2022/11/04 01:02:03;;;;;;;8.20;5.75;;;;;;;9.88;100.00;99928.03;1024159;28;20310;-89
2022/11/04 01:02:35;;;;;;;7.30;6.28;;;;;;;9.90;100.00;99927.81;1028262;28;20321;-88
2022/11/04 01:03:06;;;;;;;5.95;5.35;;;;;;;9.91;100.00;99929.41;1028186;28;20349;-90
2022/11/04 01:03:38;;;;;;;6.40;5.75;;;;;;;9.91;100.00;99929.41;1028393;28;20310;-89
2022/11/04 01:04:10;;;;;;;12.93;5.75;;;;;;;9.88;100.00;99925.38;1027755;28;20337;-89
2022/11/04 01:04:42;;;;;;;9.75;5.20;;;;;;;9.95;100.00;99921.78;1024124;28;20318;-89
2022/11/04 01:05:13;;;;;;;6.78;6.03;;;;;;;9.90;100.00;99930.47;1018813;29;20343;-89
2022/11/04 01:05:45;;;;;;;10.38;6.55;;;;;;;9.95;100.00;99925.25;1024129;28;20310;-89
2022/11/04 01:06:18;;;;;;;9.98;6.00;;;;;;;9.93;100.00;99932.66;1026170;28;20338;-88
2022/11/04 01:06:50;;;;;;;6.97;5.45;;;;;;;9.95;100.00;99933.22;1035994;28;20300;-89
2022/11/04 01:07:21;;;;;;;7.63;6.07;;;;;;;9.94;100.00;99933.47;1030675;28;20399;-89
2022/11/04 01:07:53;;;;;;;9.52;6.50;;;;;;;9.87;100.00;99933.59;1024128;28;20385;-90
2022/11/04 01:08:25;;;;;;;10.07;6.45;;;;;;;9.84;100.00;99929.53;1016567;29;20326;-89
2022/11/04 01:09:02;;;;;;;9.27;7.10;;;;;;;9.87;100.00;99933.59;1020108;29;20307;-89
2022/11/04 01:09:34;;;;;;;10.07;7.43;;;;;;;9.89;100.00;99927.00;1030100;28;20308;-89
2022/11/04 01:10:06;;;;;;;9.02;7.30;;;;;;;9.82;100.00;99926.28;1026251;28;20302;-89
2022/11/04 01:10:43;;;;;;;8.75;7.65;;;;;;;9.84;100.00;99931.38;1018612;29;20347;-89
2022/11/04 01:11:15;;;;;;;7.90;6.85;;;;;;;9.83;100.00;99932.41;1020373;29;20878;-89
2022/11/04 01:11:47;;;;;;;10.80;8.18;;;;;;;9.85;100.00;99933.78;1032302;28;20297;-89
2022/11/04 01:12:18;;;;;;;8.75;7.53;;;;;;;9.86;100.00;99939.94;1032089;28;20313;-89
2022/11/04 01:12:51;;;;;;;8.68;7.82;;;;;;;9.86;100.00;99937.25;1028146;28;20309;-89
2022/11/04 01:13:22;;;;;;;10.55;8.30;;;;;;;9.86;100.00;99932.78;1020197;29;20442;-87
2022/11/04 01:13:54;;;;;;;13.88;8.07;;;;;;;9.87;100.00;99934.41;1021574;29;20331;-89
2022/11/04 01:14:26;;;;;;;9.95;8.00;;;;;;;9.86;100.00;99937.25;1024460;28;20778;-89
2022/11/04 01:14:58;;;;;;;9.55;8.57;;;;;;;9.86;100.00;99938.09;1032132;28;20356;-90
2022/11/04 01:15:29;;;;;;;10.98;8.50;;;;;;;9.90;100.00;99938.44;1028362;28;20646;-89
2022/11/04 01:16:03;;;;;;;11.02;9.38;;;;;;;9.94;100.00;99942.25;1031067;28;20857;-89
2022/11/04 01:16:36;;;;;;;11.20;9.70;;;;;;;9.88;100.00;99936.00;1022958;29;20322;-89
2022/11/04 01:17:07;;;;;;;10.80;9.25;;;;;;;9.85;100.00;99931.13;1016255;29;20296;-89
2022/11/04 01:17:39;;;;;;;11.82;8.73;;;;;;;9.83;100.00;99943.84;1015023;29;20686;-89
2022/11/04 01:18:11;;;;;;;11.02;9.48;;;;;;;9.80;100.00;99932.88;1020743;29;20326;-89
2022/11/04 01:18:43;;;;;;;15.38;10.23;;;;;;;9.83;100.00;99938.53;1017917;29;20643;-89
2022/11/04 01:19:14;;;;;;;13.65;10.50;;;;;;;9.84;100.00;99936.69;1024184;29;20349;-89
2022/11/04 01:19:46;;;;;;;11.90;9.65;;;;;;;9.87;100.00;99949.56;1028582;28;20290;-94
2022/11/04 01:20:17;;;;;;;13.35;9.70;;;;;;;9.91;100.00;99942.72;1024840;28;20303;-94
2022/11/04 01:20:49;;;;;;;12.60;11.02;;;;;;;9.90;100.00;99936.59;1032819;28;20368;-94
2022/11/04 01:21:20;;;;;;;12.18;9.98;;;;;;;9.90;100.00;99938.44;1028776;28;20302;-95
2022/11/04 01:21:52;;;;;;;13.60;10.77;;;;;;;9.93;100.00;99937.97;1024737;29;20307;-94
2022/11/04 01:22:24;;;;;;;12.70;10.05;;;;;;;9.89;100.00;99950.13;1025233;29;20299;-88
2022/11/04 01:22:55;;;;;;;13.85;11.45;;;;;;;9.90;100.00;99939.25;1031109;28;20798;-90
2022/11/04 01:23:27;;;;;;;19.20;11.88;;;;;;;9.88;100.00;99941.34;1024141;28;20867;-88
2022/11/04 01:23:59;;;;;;;15.68;11.25;;;;;;;9.88;100.00;99945.84;1026306;28;20306;-89
2022/11/04 01:24:31;;;;;;;12.40;10.45;;;;;;;9.87;100.00;99946.88;1020138;29;20303;-89
2022/11/04 01:25:03;;;;;;;14.32;11.38;;;;;;;9.90;100.00;99944.56;1022702;29;20346;-88
2022/11/04 01:25:40;;;;;;;12.90;11.18;;;;;;;9.92;100.00;99944.34;1026421;28;20351;-89
2022/11/04 01:26:17;;;;;;;12.85;11.32;;;;;;;9.92;100.00;99949.66;1030254;28;20328;-88
2022/11/04 01:26:48;;;;;;;12.65;11.20;;;;;;;9.89;100.00;99947.47;1020706;29;20307;-89
2022/11/04 01:27:20;;;;;;;12.60;11.32;;;;;;;9.88;100.00;99951.16;1020143;29;20382;-88
2022/11/04 01:27:51;;;;;;;15.38;10.80;;;;;;;9.81;100.00;99947.81;1020069;29;20374;-89
2022/11/04 01:28:23;;;;;;;18.55;12.23;;;;;;;9.83;100.00;99949.19;1026139;28;20299;-89
2022/11/04 01:28:56;;;;;;;11.25;9.65;;;;;;;9.85;100.00;99943.63;1020441;29;20295;-91
2022/11/04 01:29:28;;;;;;;13.27;10.65;;;;;;;9.85;100.00;99946.28;1024897;28;20306;-89
2022/11/04 01:29:59;;;;;;;12.95;10.35;;;;;;;9.80;100.00;99944.34;1028312;28;20352;-93
2022/11/04 01:30:31;;;;;;;14.95;10.63;;;;;;;9.83;100.00;99948.38;1024730;29;20314;-95
2022/11/04 01:31:13;;;;;;;12.73;9.45;;;;;;;9.77;100.00;99949.31;1024875;28;20321;-95
2022/11/04 01:31:45;;;;;;;11.23;10.02;;;;;;;9.78;100.00;99945.59;1016865;29;20315;-95
2022/11/04 01:32:16;;;;;;;15.48;10.25;;;;;;;9.78;100.00;99950.94;1028855;28;20302;-96
2022/11/04 01:32:48;;;;;;;14.52;10.48;;;;;;;9.77;100.00;99949.31;1030670;28;20320;-89
2022/11/04 01:33:20;;;;;;;10.45;8.73;;;;;;;9.76;100.00;99963.66;1025673;28;20298;-90
2022/11/04 01:33:53;;;;;;;11.30;9.88;;;;;;;9.73;100.00;99953.47;1019397;29;20311;-90
2022/11/04 01:34:24;;;;;;;11.63;10.10;;;;;;;9.70;100.00;99957.41;1024329;28;20848;-90
2022/11/04 01:34:56;;;;;;;12.15;8.65;;;;;;;9.67;100.00;99959.72;1016250;29;20312;-91
2022/11/04 01:35:27;;;;;;;9.95;8.43;;;;;;;9.67;100.00;99954.41;1024406;28;20824;-89
2022/11/04 01:36:00;;;;;;;10.45;9.18;;;;;;;9.72;100.00;99958.00;1028121;28;20349;-88
2022/11/04 01:36:31;;;;;;;9.80;8.80;;;;;;;9.66;100.00;99948.28;1028234;28;20298;-89
2022/11/04 01:37:03;;;;;;;10.45;8.30;;;;;;;9.63;100.00;99970.03;1025688;28;20294;-89
2022/11/04 01:37:34;;;;;;;8.93;8.02;;;;;;;9.59;100.00;99951.06;1023015;29;20298;-90
2022/11/04 01:38:06;;;;;;;9.88;8.77;;;;;;;9.64;100.00;99962.84;1016499;29;20304;-90
2022/11/04 01:38:38;;;;;;;11.35;8.38;;;;;;;9.61;100.00;99972.09;1023503;29;20314;-90
2022/11/04 01:39:11;;;;;;;11.15;8.13;;;;;;;9.60;100.00;99960.66;1016385;29;20655;-89
2022/11/04 01:39:43;;;;;;;10.68;8.35;;;;;;;9.68;100.00;99966.66;1016277;29;20320;-89
2022/11/04 01:40:14;;;;;;;8.77;7.82;;;;;;;9.64;100.00;99965.50;1016318;29;20300;-90
2022/11/04 01:40:46;;;;;;;11.07;7.82;;;;;;;9.61;100.00;99969.44;1022932;29;20299;-88
2022/11/04 01:41:21;;;;;;;9.50;7.93;;;;;;;9.56;100.00;99966.66;1020265;29;20813;-89
2022/11/04 01:41:52;;;;;;;10.20;7.20;;;;;;;9.54;100.00;99966.88;1026464;28;20393;-89
2022/11/04 01:42:24;;;;;;;8.98;7.28;;;;;;;9.53;100.00;99967.91;1040270;28;20640;-89
2022/11/04 01:42:56;;;;;;;8.77;7.35;;;;;;;9.56;100.00;99977.28;1032160;28;20337;-89
2022/11/04 01:43:43;;;;;;;8.95;6.90;;;;;;;9.49;100.00;99958.78;1027853;28;20329;-89
2022/11/04 01:44:45;;;;;;;25.65;9.80;;;;;;;9.48;100.00;99965.16;1031250;28;20301;-89
2022/11/04 01:45:19;;;;;;;7.47;6.63;;;;;;;9.45;100.00;99968.28;1032027;28;20519;-88
2022/11/04 01:45:53;;;;;;;8.43;6.57;;;;;;;9.45;100.00;99972.78;1027036;28;20515;-89
2022/11/04 01:46:39;;;;;;;6.68;5.93;;;;;;;9.49;100.00;99976.59;1023891;28;20306;-89
2022/11/04 01:47:18;;;;;;;9.80;6.85;;;;;;;9.51;100.00;99975.31;1015267;29;20300;-89
2022/11/04 01:48:01;;;;;;;7.28;6.40;;;;;;;9.58;100.00;99973.34;1020054;29;20320;-89
2022/11/04 01:48:33;;;;;;;8.48;7.07;;;;;;;9.48;100.00;99973.13;1024539;28;20330;-89
2022/11/04 01:49:35;;;;;;;6.78;6.07;;;;;;;9.46;100.00;99980.53;1032016;28;20302;-89
2022/11/04 01:50:24;;;;;;;8.68;6.47;;;;;;;9.52;100.00;99974.28;1024375;28;20374;-90
2022/11/04 01:50:56;;;;;;;11.48;6.07;;;;;;;9.45;100.00;99978.91;1020162;29;20303;-88
2022/11/04 01:51:30;;;;;;;7.05;6.05;;;;;;;9.43;100.00;99973.00;1032074;28;20309;-88
2022/11/04 01:52:06;;;;;;;7.32;6.10;;;;;;;9.41;100.00;99988.38;1027939;28;20700;-89
2022/11/04 01:57:18;;;;;;;6.07;4.13;;;;;;;9.24;100.00;99992.72;1033047;28;20297;-95
2022/11/04 01:57:52;;;;;;;6.35;4.82;;;;;;;9.37;100.00;99987.22;1032653;28;20333;-95
2022/11/04 01:58:29;;;;;;;4.70;4.22;;;;;;;9.33;100.00;99995.88;1028656;28;20302;-95
2022/11/04 01:59:11;;;;;;;5.28;4.78;;;;;;;9.26;100.00;99990.66;1028752;28;20309;-94
2022/11/04 01:59:42;;;;;;;5.53;5.03;;;;;;;9.24;100.00;99993.53;1032674;28;20422;-94
2022/11/04 02:00:15;;;;;;;6.15;4.78;;;;;;;9.23;100.00;99988.44;1032745;28;20320;-95
2022/11/04 02:00:47;;;;;;;5.78;4.15;;;;;;;9.21;100.00;99993.19;1020791;29;20689;-94
2022/11/04 02:01:18;;;;;;;8.20;4.55;;;;;;;9.18;100.00;99998.97;1024822;29;20303;-94
2022/11/04 02:01:50;;;;;;;4.95;4.45;;;;;;;9.08;100.00;99988.09;1036646;28;20305;-95
2022/11/04 02:02:22;;;;;;;4.63;4.07;;;;;;;9.09;100.00;99990.50;1028647;28;20321;-95
2022/11/04 02:03:09;;;;;;;5.65;5.15;;;;;;;9.10;100.00;99986.00;1024548;29;20311;-95
2022/11/04 02:03:49;;;;;;;3.60;3.28;;;;;;;9.04;100.00;99984.25;1024577;28;20310;-94
2022/11/04 02:04:24;;;;;;;4.95;3.75;;;;;;;9.13;100.00;99990.88;1032646;28;20337;-94
2022/11/04 02:04:56;;;;;;;6.05;3.67;;;;;;;9.05;100.00;99989.34;1024754;28;20047;-96
2022/11/04 02:05:29;;;;;;;3.60;3.25;;;;;;;9.10;100.00;99986.00;1024642;29;20354;-94
2022/11/04 02:06:01;;;;;;;6.65;3.40;;;;;;;9.06;100.00;99990.16;1020715;29;20317;-95
2022/11/04 02:06:33;;;;;;;4.40;3.35;;;;;;;8.98;100.00;99989.44;1024592;29;20659;-94
2022/11/04 02:07:07;;;;;;;5.10;4.28;;;;;;;8.95;100.00;99995.19;1016688;29;20392;-94
2022/11/04 02:07:39;;;;;;;5.15;3.17;;;;;;;8.92;100.00;99990.34;1020540;29;20315;-95
2022/11/04 02:08:11;;;;;;;3.42;3.03;;;;;;;8.93;100.00;99985.84;1024673;29;20686;-95
2022/11/04 02:08:43;;;;;;;3.50;2.70;;;;;;;8.94;100.00;100000.72;1020782;29;20319;-94
2022/11/04 02:09:16;;;;;;;3.17;2.63;;;;;;;8.88;100.00;99988.38;1016530;29;20316;-95
2022/11/04 02:09:48;;;;;;;3.05;2.75;;;;;;;8.87;100.00;99995.53;1025465;28;20318;-95
2022/11/04 02:10:22;;;;;;;4.40;3.00;;;;;;;8.95;100.00;99989.88;1024703;29;20795;-94
2022/11/04 02:10:58;;;;;;;3.15;2.85;;;;;;;8.89;100.00;99993.44;1032735;28;20306;-95
2022/11/04 02:13:09;;;;;;;5.78;2.92;;;;;;;8.95;100.00;99997.03;1030951;28;20325;-89
2022/11/04 02:13:41;;;;;;;3.58;2.30;;;;;;;8.87;100.00;99992.06;1025524;28;20298;-88
2022/11/04 02:14:13;;;;;;;4.68;2.20;;;;;;;8.84;100.00;99993.31;1025518;28;20282;-89
2022/11/04 02:14:47;;;;;;;3.97;2.60;;;;;;;8.85;100.00;99996.78;1012303;29;20313;-87
2022/11/04 02:15:44;;;;;;;4.07;2.60;;;;;;;8.85;100.00;99999.44;1015316;29;20316;-89
2022/11/04 02:16:41;;;;;;;2.45;2.13;;;;;;;8.84;100.00;100001.28;1023250;29;20310;-88
2022/11/04 02:17:37;;;;;;;2.63;2.28;;;;;;;8.86;100.00;100006.38;1025414;28;20314;-89
2022/11/04 02:18:35;;;;;;;3.47;1.88;;;;;;;8.89;100.00;100012.03;1028985;28;20306;-89
2022/11/04 02:19:30;;;;;;;2.53;2.20;;;;;;;8.85;100.00;100010.88;1034023;28;20281;-94
2022/11/04 02:20:19;;;;;;;4.32;2.10;;;;;;;8.82;100.00;100011.31;1035400;28;20305;-94
2022/11/04 02:21:29;;;;;;;3.28;2.67;;;;;;;8.76;100.00;100011.38;1030846;28;20745;-89
2022/11/04 02:22:33;;;;;;;6.03;2.15;;;;;;;8.81;100.00;100016.88;1019875;29;20849;-90
2022/11/04 02:23:36;;;;;;;4.45;2.92;;;;;;;8.83;100.00;100012.13;1023454;28;20330;-94
2022/11/04 02:24:33;;;;;;;6.15;2.97;;;;;;;8.85;100.00;100018.84;1024585;29;20672;-96
2022/11/04 02:25:16;;;;;;;2.92;2.58;;;;;;;8.82;100.00;100008.66;1028130;28;20709;-95
2022/11/04 02:26:06;;;;;;;4.18;2.67;;;;;;;8.78;100.00;100018.13;1030980;28;20282;-94
2022/11/04 02:27:02;;;;;;;2.50;2.28;;;;;;;8.81;100.00;100008.91;1028428;28;20317;-94
2022/11/04 02:27:54;;;;;;;2.30;2.10;;;;;;;8.81;100.00;100015.00;1028545;28;20306;-94
2022/11/04 02:28:38;;;;;;;2.92;2.35;;;;;;;8.77;100.00;100021.00;1028950;28;20832;-93
2022/11/04 02:29:37;;;;;;;3.13;2.83;;;;;;;8.81;100.00;100022.97;1023836;29;20322;-94
2022/11/04 02:30:16;;;;;;;3.40;3.00;;;;;;;8.75;100.00;100023.84;1023473;28;20303;-94
2022/11/04 02:30:56;;;;;;;4.10;2.58;;;;;;;8.75;100.00;100031.81;1024541;29;20302;-94
2022/11/04 02:31:54;;;;;;;4.18;2.45;;;;;;;8.74;100.00;100016.94;1024461;29;20350;-93
2022/11/04 02:32:40;;;;;;;3.97;3.15;;;;;;;8.81;100.00;100022.97;1023365;28;20411;-94
2022/11/04 02:33:21;;;;;;;4.70;3.22;;;;;;;8.78;100.00;100031.41;1030383;28;20282;-94
2022/11/04 02:34:00;;;;;;;4.65;3.60;;;;;;;8.80;100.00;100031.19;1024612;29;20307;-94
2022/11/04 02:34:53;;;;;;;4.95;3.60;;;;;;;8.77;100.00;100026.31;1020542;29;20040;-93
2022/11/04 02:35:34;;;;;;;3.42;3.08;;;;;;;8.74;100.00;100030.19;1020543;29;20821;-94
2022/11/04 02:36:16;;;;;;;7.55;4.63;;;;;;;8.75;100.00;100031.81;1028555;28;20317;-95
2022/11/04 02:37:09;;;;;;;6.57;4.15;;;;;;;8.73;100.00;100025.94;1032518;28;20493;-94
2022/11/04 02:37:51;;;;;;;5.85;4.70;;;;;;;8.77;100.00;100034.28;1024467;29;20307;-95
2022/11/04 02:38:36;;;;;;;5.80;4.20;;;;;;;8.71;100.00;100030.66;1029546;28;20306;-96
2022/11/04 02:39:19;;;;;;;6.30;5.32;;;;;;;8.71;100.00;100033.31;1028430;28;20377;-95
2022/11/04 02:40:01;;;;;;;6.00;4.85;;;;;;;8.75;100.00;100039.78;1024616;29;20098;-94
2022/11/04 02:40:44;;;;;;;10.82;6.45;;;;;;;8.73;100.00;100039.19;1028491;28;20316;-94
2022/11/04 02:41:54;;;;;;;7.30;5.13;;;;;;;8.71;100.00;100043.94;1028489;28;20310;-94
2022/11/04 02:42:32;;;;;;;10.38;6.95;;;;;;;8.72;100.00;100036.78;1024454;29;20317;-93
2022/11/04 02:43:09;;;;;;;7.05;5.90;;;;;;;8.73;100.00;100041.84;1026480;28;20407;-95
2022/11/04 02:43:44;;;;;;;7.53;6.43;;;;;;;8.70;100.00;100054.78;1028542;28;20306;-94
2022/11/04 02:44:20;;;;;;;9.98;7.28;;;;;;;8.70;100.00;100047.63;1032510;28;20348;-95
2022/11/04 02:45:13;;;;;;;7.20;6.20;;;;;;;8.69;100.00;100043.34;1028397;28;20302;-94
2022/11/04 02:45:51;;;;;;;8.73;6.35;;;;;;;8.73;100.00;100046.34;1024465;28;20298;-94
2022/11/04 02:46:52;;;;;;;8.93;6.47;;;;;;;8.70;100.00;100050.28;1028417;28;20354;-94
2022/11/04 02:47:26;;;;;;;8.48;6.47;;;;;;;8.70;100.00;100047.63;1028399;28;20306;-94
2022/11/04 02:48:17;;;;;;;9.88;6.88;;;;;;;8.69;100.00;100059.28;1028911;28;20042;-95
2022/11/04 02:49:12;;;;;;;9.55;8.55;;;;;;;8.70;100.00;100044.97;1028418;28;20321;-95
2022/11/04 02:49:54;;;;;;;12.10;7.72;;;;;;;8.76;100.00;100043.25;1030265;28;20084;-94
2022/11/04 02:50:36;;;;;;;11.45;8.90;;;;;;;8.70;100.00;100049.47;1028407;28;20310;-94
2022/11/04 02:51:19;;;;;;;11.05;9.13;;;;;;;8.68;100.00;100055.81;1020418;29;20304;-94
2022/11/04 02:52:07;;;;;;;11.38;8.45;;;;;;;8.63;100.00;100049.53;1028436;28;20354;-92
2022/11/04 02:52:50;;;;;;;18.65;10.70;;;;;;;8.71;100.00;100057.19;1032490;28;20309;-93
2022/11/04 02:53:26;;;;;;;15.20;10.32;;;;;;;8.66;100.00;100054.41;1032421;28;20314;-94
2022/11/04 02:53:58;;;;;;;13.40;10.27;;;;;;;8.66;100.00;100054.41;1028446;28;20396;-93
2022/11/04 02:54:35;;;;;;;12.60;8.38;;;;;;;8.65;100.00;100058.91;1024366;29;20318;-94
2022/11/04 02:59:08;;;;;;;11.95;9.00;;;;;;;8.61;100.00;100059.59;1036398;28;20312;-94
2022/11/04 02:59:46;;;;;;;12.73;10.65;;;;;;;8.67;100.00;100059.50;1028542;28;20289;-95
2022/11/04 03:00:21;;;;;;;15.15;10.95;;;;;;;8.65;100.00;100068.72;1024441;29;20306;-94
2022/11/04 03:01:21;;;;;;;18.92;10.93;;;;;;;8.60;100.00;100065.91;1024611;29;20283;-94
2022/11/04 03:01:54;;;;;;;15.18;11.52;;;;;;;8.65;100.00;100058.91;1026099;28;20302;-89
2022/11/04 03:02:30;;;;;;;15.55;11.70;;;;;;;8.60;100.00;100060.63;1031431;28;20301;-88
2022/11/04 03:03:10;;;;;;;13.93;11.35;;;;;;;8.62;100.00;100058.53;1019964;29;20303;-88
2022/11/04 03:03:48;;;;;;;13.93;11.70;;;;;;;8.68;100.00;100062.97;1017139;29;20382;-89
2022/11/04 03:04:25;;;;;;;16.17;12.10;;;;;;;8.67;100.00;100066.66;1023026;29;20043;-88
2022/11/04 03:04:58;;;;;;;18.20;13.30;;;;;;;8.67;100.00;100064.00;1029744;28;20853;-88
2022/11/04 03:05:33;;;;;;;28.02;16.10;;;;;;;8.64;100.00;100069.75;1029755;28;20405;-88
2022/11/04 03:06:08;;;;;;;15.68;13.52;;;;;;;8.66;100.00;100070.34;1021523;29;20291;-89
2022/11/04 03:06:44;;;;;;;15.35;12.63;;;;;;;8.61;100.00;100075.50;1027808;28;20301;-89
2022/11/04 03:07:19;;;;;;;17.20;13.05;;;;;;;8.70;100.00;100070.69;1025326;28;20385;-88
2022/11/04 03:07:53;;;;;;;15.50;12.98;;;;;;;8.73;100.00;100076.38;1022990;28;20299;-88
2022/11/04 03:08:29;;;;;;;18.38;13.18;;;;;;;8.70;100.00;100076.81;1019885;29;20332;-89
2022/11/04 03:09:02;;;;;;;16.33;13.18;;;;;;;8.68;100.00;100073.56;1030122;28;20626;-88
2022/11/04 03:09:35;;;;;;;21.40;13.73;;;;;;;8.65;100.00;100068.72;1027798;28;20302;-88
2022/11/04 03:10:16;;;;;;;15.82;13.80;;;;;;;8.63;100.00;100065.47;1025317;28;20414;-88
2022/11/04 03:10:52;;;;;;;16.52;12.90;;;;;;;8.63;100.00;100076.91;1023796;28;20353;-89
2022/11/04 03:11:24;;;;;;;15.48;13.00;;;;;;;8.61;100.00;100078.97;1031100;28;20866;-89
2022/11/04 03:12:01;;;;;;;20.02;13.38;;;;;;;8.58;100.00;100075.94;1019731;29;20331;-88
2022/11/04 03:12:37;;;;;;;18.30;13.15;;;;;;;8.59;100.00;100074.91;1023603;29;20310;-88
2022/11/04 03:13:19;;;;;;;20.05;15.88;;;;;;;8.65;100.00;100068.72;1026008;28;20334;-88
2022/11/04 03:14:01;;;;;;;16.70;13.85;;;;;;;8.63;100.00;100081.41;1027269;28;20356;-88
2022/11/04 03:14:42;;;;;;;17.80;14.43;;;;;;;8.58;100.00;100078.59;1024789;28;20311;-88
2022/11/04 03:15:19;;;;;;;19.33;13.60;;;;;;;8.60;100.00;100085.31;1034343;28;20296;-88
2022/11/04 03:15:56;;;;;;;18.23;14.75;;;;;;;8.59;100.00;100078.38;1027867;28;20081;-89
2022/11/04 03:16:40;;;;;;;16.08;13.05;;;;;;;8.59;100.00;100082.88;1016093;29;20344;-89